createdAt,value
2023-03-11T00:01:18.946Z,95832.38
2023-03-11T00:03:46.155Z,95842.25
2023-03-11T00:06:13.703Z,95831.59
2023-03-11T00:08:41.269Z,95828.94
2023-03-11T00:11:08.992Z,95832.66
2023-03-11T00:13:36.942Z,95822.00
2023-03-11T00:16:04.928Z,95831.59
2023-03-11T00:18:32.396Z,95835.34
2023-03-11T00:21:00.986Z,95831.59
2023-03-11T00:23:29.150Z,95828.94
2023-03-11T00:25:56.995Z,95834.25
2023-03-11T00:28:26.618Z,95840.66
2023-03-11T00:30:55.258Z,95834.25
2023-03-11T00:33:23.319Z,95824.69
2023-03-11T00:35:51.412Z,95830.00
2023-03-11T00:38:18.826Z,95824.69
2023-03-11T00:40:47.838Z,95820.16
2023-03-11T00:43:16.233Z,95813.22
2023-03-11T00:45:43.788Z,95813.22
2023-03-11T00:48:12.441Z,95814.81
2023-03-11T00:50:40.648Z,95813.22
2023-03-11T00:53:07.952Z,95810.81
2023-03-11T00:55:35.938Z,95816.69
2023-03-11T00:58:07.713Z,95817.75
2023-03-11T01:00:35.597Z,95818.53
2023-03-11T01:03:03.570Z,95821.47
2023-03-11T01:05:33.220Z,95820.66
2023-03-11T01:08:01.256Z,95815.34
2023-03-11T01:10:30.629Z,95821.47
2023-03-11T01:12:58.286Z,95810.00
2023-03-11T01:15:32.159Z,95800.19
2023-03-11T01:18:00.193Z,95805.50
2023-03-11T01:20:28.238Z,95809.22
2023-03-11T01:22:56.022Z,95806.56
2023-03-11T01:25:24.433Z,95806.00
2023-03-11T01:27:52.022Z,95811.88
2023-03-11T01:30:22.152Z,95807.63
2023-03-11T01:32:51.047Z,95814.53
2023-03-11T01:35:21.211Z,95814.53
2023-03-11T01:37:48.699Z,95818.28
2023-03-11T01:40:21.508Z,95811.34
2023-03-11T01:42:48.875Z,95812.94
2023-03-11T01:45:29.285Z,95816.66
2023-03-11T01:47:56.590Z,95815.88
2023-03-11T01:50:27.128Z,95802.31
2023-03-11T01:52:54.948Z,95822.25
2023-03-11T01:55:22.748Z,95804.44
2023-03-11T01:57:51.800Z,95806.00
2023-03-11T02:00:19.511Z,95799.09
2023-03-11T02:02:55.522Z,95799.09
2023-03-11T02:05:24.190Z,95793.78
2023-03-11T02:07:54.617Z,95804.44
2023-03-11T02:10:22.287Z,95802.81
2023-03-11T02:12:50.808Z,95806.56
2023-03-11T02:15:18.853Z,95807.34
2023-03-11T02:17:46.804Z,95806.56
2023-03-11T02:20:20.508Z,95808.13
2023-03-11T02:22:49.342Z,95808.13
2023-03-11T02:25:29.006Z,95807.59
2023-03-11T02:27:59.456Z,95801.22
2023-03-11T02:30:28.665Z,95810.25
2023-03-11T02:32:56.381Z,95810.25
2023-03-11T02:35:25.272Z,95804.94
2023-03-11T02:37:54.054Z,95807.59
2023-03-11T02:40:24.646Z,95803.09
2023-03-11T02:42:55.804Z,95812.66
2023-03-11T02:45:26.082Z,95806.56
2023-03-11T02:47:56.529Z,95819.06
2023-03-11T02:50:25.583Z,95818.25
2023-03-11T02:52:53.051Z,95810.25
2023-03-11T02:55:21.078Z,95820.91
2023-03-11T02:57:48.891Z,95816.66
2023-03-11T03:00:17.759Z,95824.66
2023-03-11T03:02:46.540Z,95823.84
2023-03-11T03:05:14.176Z,95839.81
2023-03-11T03:07:41.428Z,95829.97
2023-03-11T03:10:10.524Z,95824.66
2023-03-11T03:12:37.803Z,95833.66
2023-03-11T03:15:05.958Z,95829.16
2023-03-11T03:17:34.045Z,95827.53
2023-03-11T03:20:01.641Z,95829.41
2023-03-11T03:22:29.996Z,95833.66
2023-03-11T03:24:57.814Z,95838.97
2023-03-11T03:27:25.118Z,95841.09
2023-03-11T03:29:52.795Z,95841.94
2023-03-11T03:32:20.100Z,95847.25
2023-03-11T03:34:47.755Z,95841.09
2023-03-11T03:37:14.986Z,95845.63
2023-03-11T03:39:42.490Z,95831.53
2023-03-11T03:42:09.691Z,95827.25
2023-03-11T03:44:37.232Z,95843.22
2023-03-11T03:47:04.567Z,95837.91
2023-03-11T03:49:32.196Z,95842.44
2023-03-11T03:51:59.427Z,95845.88
2023-03-11T03:54:26.941Z,95840.06
2023-03-11T03:56:54.187Z,95850.72
2023-03-11T03:59:21.700Z,95849.09
2023-03-11T04:01:49.073Z,95854.41
2023-03-11T04:04:16.678Z,95837.41
2023-03-11T04:06:43.972Z,95850.97
2023-03-11T04:09:12.014Z,95847.50
2023-03-11T04:11:39.289Z,95842.19
2023-03-11T04:14:07.900Z,95836.84
2023-03-11T04:16:35.228Z,95837.91
2023-03-11T04:19:02.871Z,95842.44
2023-03-11T04:21:30.831Z,95842.44
2023-03-11T04:23:58.709Z,95847.75
2023-03-11T04:26:26.069Z,95844.31
2023-03-11T04:28:53.553Z,95849.63
2023-03-11T04:31:20.905Z,95854.94
2023-03-11T04:33:48.496Z,95849.63
2023-03-11T04:36:15.736Z,95852.28
2023-03-11T04:38:43.288Z,95855.19
2023-03-11T04:41:10.539Z,95865.59
2023-03-11T04:43:38.105Z,95863.97
2023-03-11T04:46:05.812Z,95861.31
2023-03-11T04:48:33.927Z,95850.66
2023-03-11T04:51:01.211Z,95851.75
2023-03-11T04:53:28.744Z,95853.34
2023-03-11T04:55:56.109Z,95855.44
2023-03-11T04:58:24.892Z,95863.44
2023-03-11T05:00:52.845Z,95859.19
2023-03-11T05:03:20.644Z,95865.06
2023-03-11T05:05:48.111Z,95859.97
2023-03-11T05:08:15.669Z,95868.22
2023-03-11T05:10:43.098Z,95863.72
2023-03-11T05:13:10.729Z,95869.03
2023-03-11T05:15:38.082Z,95868.22
2023-03-11T05:18:05.679Z,95873.53
2023-03-11T05:20:32.948Z,95873.53
2023-03-11T05:23:00.531Z,95877.28
2023-03-11T05:25:27.791Z,95883.66
2023-03-11T05:27:55.305Z,95887.94
2023-03-11T05:30:22.920Z,95890.06
2023-03-11T05:32:50.744Z,95895.38
2023-03-11T05:35:18.283Z,95891.63
2023-03-11T05:37:45.859Z,95900.69
2023-03-11T05:40:13.280Z,95901.75
2023-03-11T05:42:41.820Z,95897.50
2023-03-11T05:45:09.893Z,95899.06
2023-03-11T05:47:37.447Z,95908.13
2023-03-11T05:50:05.610Z,95913.47
2023-03-11T05:52:33.981Z,95918.78
2023-03-11T05:55:01.939Z,95921.44
2023-03-11T05:57:29.483Z,95935.00
2023-03-11T05:59:56.852Z,95933.13
2023-03-11T06:02:24.589Z,95952.59
2023-03-11T06:04:52.036Z,95962.41
2023-03-11T06:07:19.654Z,95954.44
2023-03-11T06:09:46.916Z,95969.59
2023-03-11T06:12:14.498Z,95972.53
2023-03-11T06:14:42.656Z,95975.19
2023-03-11T06:17:10.301Z,95978.91
2023-03-11T06:19:37.552Z,95986.09
2023-03-11T06:22:05.478Z,95986.88
2023-03-11T06:24:33.125Z,95998.63
2023-03-11T06:27:00.716Z,96001.28
2023-03-11T06:29:29.192Z,96006.59
2023-03-11T06:31:56.836Z,96019.34
2023-03-11T06:34:24.157Z,96020.16
2023-03-11T06:36:51.716Z,96030.00
2023-03-11T06:39:18.994Z,96028.38
2023-03-11T06:41:46.588Z,96045.97
2023-03-11T06:44:13.865Z,96036.13
2023-03-11T06:46:41.445Z,96050.47
2023-03-11T06:49:08.766Z,96049.66
2023-03-11T06:51:36.330Z,96049.66
2023-03-11T06:54:03.732Z,96048.88
2023-03-11T06:56:31.266Z,96053.41
2023-03-11T06:58:59.750Z,96057.09
2023-03-11T07:01:28.717Z,96065.63
2023-03-11T07:03:56.264Z,96072.03
2023-03-11T07:06:26.642Z,96071.47
2023-03-11T07:08:54.353Z,96073.88
2023-03-11T07:11:25.374Z,96072.28
2023-03-11T07:13:54.291Z,96075.72
2023-03-11T07:16:27.407Z,96084.50
2023-03-11T07:18:58.967Z,96083.72
2023-03-11T07:21:27.660Z,96094.38
2023-03-11T07:23:56.879Z,96102.34
2023-03-11T07:26:25.689Z,96103.41
2023-03-11T07:28:55.361Z,96099.69
2023-03-11T07:31:25.812Z,96100.75
2023-03-11T07:33:54.035Z,96112.44
2023-03-11T07:36:23.923Z,96115.38
2023-03-11T07:39:04.634Z,96116.16
2023-03-11T07:41:35.158Z,96117.75
2023-03-11T07:44:04.752Z,96113.50
2023-03-11T07:46:33.012Z,96114.56
2023-03-11T07:49:02.112Z,96121.50
2023-03-11T07:51:32.587Z,96119.88
2023-03-11T07:54:01.614Z,96125.19
2023-03-11T07:56:32.588Z,96128.94
2023-03-11T07:59:01.123Z,96136.66
2023-03-11T08:01:36.020Z,96135.84
2023-03-11T08:04:05.600Z,96144.91
2023-03-11T08:06:36.463Z,96144.09
2023-03-11T08:09:08.980Z,96136.91
2023-03-11T08:11:37.130Z,96135.84
2023-03-11T08:14:05.041Z,96138.50
2023-03-11T08:16:33.001Z,96147.31
2023-03-11T08:19:00.365Z,96152.88
2023-03-11T08:21:31.842Z,96159.25
2023-03-11T08:24:01.576Z,96159.53
2023-03-11T08:26:30.839Z,96164.06
2023-03-11T08:28:59.271Z,96167.78
2023-03-11T08:31:29.922Z,96165.66
2023-03-11T08:34:05.826Z,96159.78
2023-03-11T08:36:34.488Z,96173.09
2023-03-11T08:39:02.523Z,96175.19
2023-03-11T08:41:30.885Z,96174.41
2023-03-11T08:43:58.911Z,96184.25
2023-03-11T08:46:33.249Z,96189.56
2023-03-11T08:49:01.588Z,96185.84
2023-03-11T08:51:32.447Z,96187.97
2023-03-11T08:54:01.284Z,96191.69
2023-03-11T08:56:29.844Z,96188.47
2023-03-11T08:58:57.308Z,96189.00
2023-03-11T09:01:25.610Z,96194.31
2023-03-11T09:03:52.983Z,96201.72
2023-03-11T09:06:21.450Z,96196.41
2023-03-11T09:08:49.081Z,96219.28
2023-03-11T09:11:18.580Z,96214.47
2023-03-11T09:13:46.463Z,96219.81
2023-03-11T09:16:17.167Z,96219.00
2023-03-11T09:18:44.698Z,96216.06
2023-03-11T09:21:13.032Z,96229.38
2023-03-11T09:23:43.610Z,96232.34
2023-03-11T09:26:12.537Z,96243.78
2023-03-11T09:28:41.160Z,96243.31
2023-03-11T09:31:09.560Z,96248.63
2023-03-11T09:33:39.760Z,96260.06
2023-03-11T09:36:08.581Z,96255.53
2023-03-11T09:38:35.956Z,96249.72
2023-03-11T09:41:17.091Z,96254.03
2023-03-11T09:44:03.077Z,96261.25
2023-03-11T09:46:52.353Z,96262.09
2023-03-11T09:49:41.217Z,96270.63
2023-03-11T09:52:15.126Z,96277.22
2023-03-11T09:54:47.083Z,96277.22
2023-03-11T09:57:28.535Z,96287.63
2023-03-11T09:59:56.496Z,96283.38
2023-03-11T10:02:28.385Z,96293.19
2023-03-11T10:05:12.773Z,96298.84
2023-03-11T10:07:42.131Z,96293.81
2023-03-11T10:10:14.197Z,96307.41
2023-03-11T10:13:13.297Z,96314.09
2023-03-11T10:15:48.355Z,96314.91
2023-03-11T10:18:30.963Z,96323.47
2023-03-11T10:21:01.249Z,96334.13
2023-03-11T10:23:37.853Z,96333.28
2023-03-11T10:26:16.592Z,96330.38
2023-03-11T10:29:02.655Z,96345.88
2023-03-11T10:31:39.167Z,96346.94
2023-03-11T10:34:18.078Z,96351.47
2023-03-11T10:37:14.252Z,96364.56
2023-03-11T10:39:41.936Z,96371.47
2023-03-11T10:42:16.954Z,96381.31
2023-03-11T10:44:44.472Z,96373.13
2023-03-11T10:47:20.684Z,96383.78
2023-03-11T10:49:49.208Z,96388.03
2023-03-11T10:52:16.764Z,96402.19
2023-03-11T10:54:59.097Z,96392.56
2023-03-11T10:57:29.361Z,96403.22
2023-03-11T10:59:59.363Z,96405.09
2023-03-11T11:02:38.173Z,96407.16
2023-03-11T11:05:28.741Z,96415.16
2023-03-11T11:08:12.014Z,96431.13
2023-03-11T11:10:51.339Z,96433.78
2023-03-11T11:13:27.924Z,96436.22
2023-03-11T11:16:20.970Z,96438.88
2023-03-11T11:19:01.904Z,96444.19
2023-03-11T11:21:37.219Z,96460.41
2023-03-11T11:24:29.895Z,96467.31
2023-03-11T11:27:23.467Z,96470.59
2023-03-11T11:30:17.112Z,96465.81
2023-03-11T11:32:44.716Z,96475.44
2023-03-11T11:35:17.239Z,96487.69
2023-03-11T11:38:04.268Z,96496.22
2023-03-11T11:40:33.488Z,96507.94
2023-03-11T11:43:21.085Z,96511.41
2023-03-11T11:46:05.743Z,96526.59
2023-03-11T11:48:50.078Z,96531.41
2023-03-11T11:51:30.042Z,96538.84
2023-03-11T11:54:10.153Z,96550.03
2023-03-11T11:56:37.914Z,96565.00
2023-03-11T11:59:15.581Z,96568.69
2023-03-11T12:02:19.286Z,96581.78
2023-03-11T12:05:26.674Z,96583.06
2023-03-11T12:08:08.833Z,96592.09
2023-03-11T12:10:57.988Z,96602.97
2023-03-11T12:13:49.366Z,96611.25
2023-03-11T12:16:43.785Z,96620.81
2023-03-11T12:19:22.984Z,96632.28
2023-03-11T12:22:15.966Z,96636.34
2023-03-11T12:25:23.020Z,96634.25
2023-03-11T12:28:21.109Z,96649.88
2023-03-11T12:30:55.591Z,96651.97
2023-03-11T12:33:40.577Z,96657.06
2023-03-11T12:36:20.104Z,96655.44
2023-03-11T12:38:48.984Z,96658.91
2023-03-11T12:41:36.980Z,96665.06
2023-03-11T12:44:21.597Z,96676.97
2023-03-11T12:47:09.834Z,96693.78
2023-03-11T12:49:49.484Z,96692.16
2023-03-11T12:52:19.448Z,96698.28
2023-03-11T12:54:49.513Z,96711.88
2023-03-11T12:57:16.964Z,96722.53
2023-03-11T13:00:18.217Z,96727.03
2023-03-11T13:02:48.720Z,96735.84
2023-03-11T13:05:35.133Z,96746.50
2023-03-11T13:08:20.019Z,96747.75
2023-03-11T13:10:50.221Z,96755.75
2023-03-11T13:13:39.599Z,96772.56
2023-03-11T13:16:13.744Z,96773.56
2023-03-11T13:18:42.806Z,96783.63
2023-03-11T13:21:28.670Z,96795.34
2023-03-11T13:24:26.976Z,96796.38
2023-03-11T13:27:04.435Z,96811.81
2023-03-11T13:29:59.252Z,96819.81
2023-03-11T13:33:11.881Z,96824.28
2023-03-11T13:36:14.256Z,96833.56
2023-03-11T13:39:05.265Z,96833.81
2023-03-11T13:41:36.117Z,96850.59
2023-03-11T13:44:13.871Z,96862.28
2023-03-11T13:46:49.642Z,96864.94
2023-03-11T13:49:39.746Z,96868.19
2023-03-11T13:52:16.122Z,96877.22
2023-03-11T13:54:46.591Z,96870.28
2023-03-11T13:57:25.500Z,96892.88
2023-03-11T13:59:55.093Z,96896.31
2023-03-11T14:02:27.329Z,96905.94
2023-03-11T14:05:09.578Z,96913.34
2023-03-11T14:07:38.533Z,96920.28
2023-03-11T14:10:27.205Z,96920.78
2023-03-11T14:13:17.851Z,96922.06
2023-03-11T14:16:08.361Z,96922.84
2023-03-11T14:18:35.729Z,96933.97
2023-03-11T14:21:15.850Z,96939.06
2023-03-11T14:23:52.093Z,96939.84
2023-03-11T14:26:21.885Z,96941.72
2023-03-11T14:28:52.500Z,96956.09
2023-03-11T14:31:29.988Z,96956.88
2023-03-11T14:34:12.550Z,96957.91
2023-03-11T14:36:40.558Z,96960.59
2023-03-11T14:39:35.232Z,96974.16
2023-03-11T14:42:21.880Z,96979.56
2023-03-11T14:45:23.651Z,96994.75
2023-03-11T14:47:51.207Z,96997.41
2023-03-11T14:50:24.201Z,97008.06
2023-03-11T14:52:51.706Z,97003.53
2023-03-11T14:55:29.143Z,97014.66
2023-03-11T14:58:19.147Z,97021.81
2023-03-11T15:00:58.542Z,97021.94
2023-03-11T15:03:35.285Z,97024.59
2023-03-11T15:06:09.819Z,97030.50
2023-03-11T15:08:47.225Z,97028.41
2023-03-11T15:11:21.164Z,97038.00
2023-03-11T15:13:51.218Z,97045.19
2023-03-11T15:16:33.004Z,97047.63
2023-03-11T15:19:20.823Z,97056.66
2023-03-11T15:21:50.764Z,97055.38
2023-03-11T15:24:25.826Z,97061.53
2023-03-11T15:27:01.322Z,97063.13
2023-03-11T15:29:30.038Z,97062.78
2023-03-11T15:31:59.197Z,97071.34
2023-03-11T15:34:32.017Z,97070.53
2023-03-11T15:37:03.312Z,97081.78
2023-03-11T15:39:30.759Z,97080.16
2023-03-11T15:42:13.068Z,97086.06
2023-03-11T15:44:53.559Z,97090.81
2023-03-11T15:47:23.019Z,97100.41
2023-03-11T15:49:51.200Z,97108.63
2023-03-11T15:52:21.866Z,97127.03
2023-03-11T15:54:55.434Z,97122.78
2023-03-11T15:57:29.462Z,97125.44
2023-03-11T15:59:59.972Z,97128.09
2023-03-11T16:02:29.359Z,97133.88
2023-03-11T16:04:58.400Z,97143.50
2023-03-11T16:07:38.634Z,97141.06
2023-03-11T16:10:08.737Z,97155.16
2023-03-11T16:12:36.334Z,97154.38
2023-03-11T16:15:05.090Z,97163.16
2023-03-11T16:17:48.501Z,97166.88
2023-03-11T16:20:18.879Z,97174.88
2023-03-11T16:22:49.045Z,97184.94
2023-03-11T16:25:36.079Z,97191.88
2023-03-11T16:28:04.387Z,97191.28
2023-03-11T16:30:34.319Z,97202.50
2023-03-11T16:33:04.324Z,97200.91
2023-03-11T16:35:32.886Z,97205.06
2023-03-11T16:38:00.525Z,97212.00
2023-03-11T16:40:29.178Z,97223.13
2023-03-11T16:43:04.502Z,97223.34
2023-03-11T16:45:32.470Z,97228.06
2023-03-11T16:48:00.109Z,97230.97
2023-03-11T16:50:28.633Z,97241.38
2023-03-11T16:52:57.485Z,97253.31
2023-03-11T16:55:30.575Z,97257.03
2023-03-11T16:57:58.957Z,97264.16
2023-03-11T17:00:26.888Z,97267.09
2023-03-11T17:02:54.288Z,97282.81
2023-03-11T17:05:22.071Z,97280.16
2023-03-11T17:07:54.142Z,97286.31
2023-03-11T17:10:24.644Z,97290.56
2023-03-11T17:12:52.274Z,97294.88
2023-03-11T17:15:20.291Z,97301.81
2023-03-11T17:17:47.735Z,97311.66
2023-03-11T17:20:15.668Z,97326.56
2023-03-11T17:22:43.057Z,97323.31
2023-03-11T17:25:10.720Z,97326.00
2023-03-11T17:27:38.986Z,97337.22
2023-03-11T17:30:07.789Z,97339.09
2023-03-11T17:32:35.169Z,97346.84
2023-03-11T17:35:03.232Z,97352.97
2023-03-11T17:37:30.725Z,97347.66
2023-03-11T17:39:58.377Z,97366.28
2023-03-11T17:42:25.953Z,97368.97
2023-03-11T17:44:56.861Z,97367.69
2023-03-11T17:47:27.547Z,97384.03
2023-03-11T17:49:55.243Z,97381.97
2023-03-11T17:52:22.707Z,97381.97
2023-03-11T17:54:50.385Z,97391.72
2023-03-11T17:57:17.752Z,97400.72
2023-03-11T17:59:49.251Z,97398.66
2023-03-11T18:02:16.993Z,97403.41
2023-03-11T18:04:48.945Z,97408.50
2023-03-11T18:07:16.348Z,97413.38
2023-03-11T18:09:44.750Z,97412.78
2023-03-11T18:12:12.356Z,97419.38
2023-03-11T18:14:40.224Z,97440.53
2023-03-11T18:17:07.799Z,97440.53
2023-03-11T18:19:37.722Z,97441.31
2023-03-11T18:22:05.209Z,97457.56
2023-03-11T18:24:32.857Z,97460.50
2023-03-11T18:27:00.223Z,97463.03
2023-03-11T18:29:28.594Z,97465.50
2023-03-11T18:31:57.070Z,97472.31
2023-03-11T18:34:24.834Z,97474.63
2023-03-11T18:36:52.607Z,97475.03
2023-03-11T18:39:20.422Z,97485.31
2023-03-11T18:41:47.838Z,97477.53
2023-03-11T18:44:16.134Z,97481.47
2023-03-11T18:46:44.196Z,97489.88
2023-03-11T18:49:14.239Z,97499.94
2023-03-11T18:51:43.005Z,97503.00
2023-03-11T18:54:13.761Z,97498.13
2023-03-11T18:56:42.851Z,97503.88
2023-03-11T18:59:12.632Z,97499.81
2023-03-11T19:01:40.956Z,97508.84
2023-03-11T19:04:10.661Z,97513.56
2023-03-11T19:06:39.366Z,97511.69
2023-03-11T19:09:10.719Z,97519.09
2023-03-11T19:11:39.850Z,97519.53
2023-03-11T19:14:09.206Z,97524.84
2023-03-11T19:16:39.022Z,97527.91
2023-03-11T19:19:09.160Z,97536.69
2023-03-11T19:21:39.465Z,97538.97
2023-03-11T19:24:08.706Z,97539.97
2023-03-11T19:26:44.799Z,97551.66
2023-03-11T19:29:16.050Z,97552.47
2023-03-11T19:31:45.701Z,97551.44
2023-03-11T19:34:14.532Z,97563.69
2023-03-11T19:36:43.751Z,97566.34
2023-03-11T19:39:14.783Z,97569.00
2023-03-11T19:41:43.679Z,97567.16
2023-03-11T19:44:13.936Z,97571.66
2023-03-11T19:46:42.602Z,97576.78
2023-03-11T19:49:12.606Z,97579.44
2023-03-11T19:51:49.556Z,97569.81
2023-03-11T19:54:21.910Z,97577.00
2023-03-11T19:56:51.556Z,97588.22
2023-03-11T19:59:21.556Z,97589.84
2023-03-11T20:01:52.560Z,97591.94
2023-03-11T20:04:21.811Z,97591.94
2023-03-11T20:06:50.782Z,97593.56
2023-03-11T20:09:20.607Z,97595.16
2023-03-11T20:11:49.293Z,97597.63
2023-03-11T20:14:19.870Z,97595.56
2023-03-11T20:16:49.309Z,97601.94
2023-03-11T20:19:19.364Z,97600.06
2023-03-11T20:21:48.538Z,97596.38
2023-03-11T20:24:19.890Z,97601.69
2023-03-11T20:26:51.288Z,97609.06
2023-03-11T20:29:21.343Z,97608.06
2023-03-11T20:31:50.858Z,97604.78
2023-03-11T20:34:26.212Z,97608.06
2023-03-11T20:36:56.764Z,97608.25
2023-03-11T20:39:30.670Z,97609.06
2023-03-11T20:42:05.355Z,97611.53
2023-03-11T20:44:35.980Z,97609.06
2023-03-11T20:47:06.131Z,97606.41
2023-03-11T20:49:36.074Z,97608.25
2023-03-11T20:52:07.353Z,97611.97
2023-03-11T20:54:36.028Z,97613.56
2023-03-11T20:57:04.703Z,97618.09
2023-03-11T20:59:34.472Z,97615.44
2023-03-11T21:02:07.756Z,97624.41
2023-03-11T21:04:41.049Z,97632.41
2023-03-11T21:07:08.512Z,97632.41
2023-03-11T21:09:36.192Z,97630.78
2023-03-11T21:12:03.911Z,97636.09
2023-03-11T21:14:31.657Z,97642.22
2023-03-11T21:16:59.600Z,97638.97
2023-03-11T21:19:27.211Z,97643.03
2023-03-11T21:21:54.493Z,97645.09
2023-03-11T21:24:22.877Z,97658.59
2023-03-11T21:26:50.195Z,97658.59
2023-03-11T21:29:18.015Z,97648.56
2023-03-11T21:31:46.291Z,97659.34
2023-03-11T21:34:15.746Z,97655.69
2023-03-11T21:36:43.207Z,97655.69
2023-03-11T21:39:10.932Z,97658.94
2023-03-11T21:41:38.520Z,97658.94
2023-03-11T21:44:06.040Z,97664.88
2023-03-11T21:46:33.634Z,97667.53
2023-03-11T21:49:01.477Z,97669.34
2023-03-11T21:51:29.371Z,97676.53
2023-03-11T21:53:57.503Z,97670.78
2023-03-11T21:56:25.549Z,97675.06
2023-03-11T21:58:53.800Z,97676.47
2023-03-11T22:01:21.221Z,97688.97
2023-03-11T22:03:49.130Z,97688.78
2023-03-11T22:06:17.246Z,97683.00
2023-03-11T22:08:45.019Z,97692.84
2023-03-11T22:11:17.656Z,97692.25
2023-03-11T22:13:46.745Z,97703.50
2023-03-11T22:16:14.760Z,97700.22
2023-03-11T22:18:42.740Z,97699.19
2023-03-11T22:21:10.967Z,97706.34
2023-03-11T22:23:38.618Z,97695.28
2023-03-11T22:26:05.946Z,97708.81
2023-03-11T22:28:33.708Z,97703.50
2023-03-11T22:31:09.736Z,97712.50
2023-03-11T22:33:37.534Z,97703.50
2023-03-11T22:36:07.733Z,97710.44
2023-03-11T22:38:36.843Z,97714.13
2023-03-11T22:41:07.568Z,97717.81
2023-03-11T22:43:36.319Z,97719.47
2023-03-11T22:46:04.931Z,97725.78
2023-03-11T22:48:33.831Z,97716.19
2023-03-11T22:51:01.965Z,97719.88
2023-03-11T22:53:29.672Z,97721.50
2023-03-11T22:55:56.905Z,97726.84
2023-03-11T22:58:24.703Z,97721.50
2023-03-11T23:00:51.953Z,97720.69
2023-03-11T23:03:19.628Z,97719.06
2023-03-11T23:05:47.417Z,97721.91
2023-03-11T23:08:16.180Z,97724.38
2023-03-11T23:10:46.148Z,97721.91
2023-03-11T23:13:14.548Z,97716.59
2023-03-11T23:15:43.663Z,97721.13
2023-03-11T23:18:12.288Z,97729.91
2023-03-11T23:20:41.147Z,97731.56
2023-03-11T23:23:09.844Z,97729.69
2023-03-11T23:25:39.152Z,97730.94
2023-03-11T23:28:07.210Z,97723.97
2023-03-11T23:30:34.849Z,97729.28
2023-03-11T23:33:03.033Z,97728.72
2023-03-11T23:35:31.890Z,97726.06
2023-03-11T23:38:00.337Z,97733.00
2023-03-11T23:40:28.798Z,97736.69
2023-03-11T23:42:56.362Z,97743.63
2023-03-11T23:45:23.939Z,97740.38
2023-03-11T23:47:51.639Z,97751.81
2023-03-11T23:50:18.889Z,97754.72
2023-03-11T23:52:46.486Z,97755.53
2023-03-11T23:55:15.065Z,97761.66
2023-03-11T23:57:42.912Z,97759.00
